createdAt,value
2019-04-14T00:00:47.643Z,5.63
2019-04-14T00:03:28.225Z,5.62
2019-04-14T00:06:02.689Z,5.53
2019-04-14T00:08:34.810Z,5.57
2019-04-14T00:11:06.652Z,5.57
2019-04-14T00:13:39.272Z,5.57
2019-04-14T00:16:11.724Z,5.57
2019-04-14T00:18:44.740Z,5.51
2019-04-14T00:21:17.277Z,5.45
2019-04-14T00:23:50.152Z,5.49
2019-04-14T00:26:29.731Z,5.56
2019-04-14T00:29:02.648Z,5.57
2019-04-14T00:31:34.972Z,5.51
2019-04-14T00:34:20.708Z,5.57
2019-04-14T00:37:29.528Z,5.56
2019-04-14T00:40:15.017Z,5.50
2019-04-14T00:43:04.927Z,5.48
2019-04-14T00:45:49.934Z,5.50
2019-04-14T00:48:22.627Z,5.42
2019-04-14T00:50:55.915Z,5.48
2019-04-14T00:53:29.525Z,5.47
2019-04-14T00:56:01.958Z,5.44
2019-04-14T00:58:34.300Z,5.40
2019-04-14T01:01:07.002Z,5.38
2019-04-14T01:03:39.435Z,5.37
2019-04-14T01:06:12.244Z,5.44
2019-04-14T01:08:44.553Z,5.39
2019-04-14T01:11:16.640Z,5.39
2019-04-14T01:13:48.675Z,5.40
2019-04-14T01:16:23.878Z,5.44
2019-04-14T01:18:55.851Z,5.48
2019-04-14T01:21:28.547Z,5.46
2019-04-14T01:24:01.319Z,5.49
2019-04-14T01:26:33.252Z,5.51
2019-04-14T01:29:05.842Z,5.52
2019-04-14T01:31:38.230Z,5.52
2019-04-14T01:34:10.788Z,5.45
2019-04-14T01:36:43.167Z,5.45
2019-04-14T01:39:15.453Z,5.48
2019-04-14T01:41:47.877Z,5.57
2019-04-14T01:44:19.933Z,5.52
2019-04-14T01:46:52.133Z,5.57
2019-04-14T01:49:24.711Z,5.55
2019-04-14T01:52:21.401Z,5.53
2019-04-14T01:55:13.366Z,5.56
2019-04-14T01:58:14.286Z,5.52
2019-04-14T02:00:55.900Z,5.49
2019-04-14T02:03:28.172Z,5.46
2019-04-14T02:06:00.384Z,5.44
2019-04-14T02:08:32.906Z,5.44
2019-04-14T02:11:05.323Z,5.42
2019-04-14T02:13:37.541Z,5.46
2019-04-14T02:16:18.818Z,5.47
2019-04-14T02:18:44.909Z,5.53
2019-04-14T02:21:17.877Z,5.54
2019-04-14T02:23:49.901Z,5.62
2019-04-14T02:26:22.016Z,5.61
2019-04-14T02:28:54.989Z,5.56
2019-04-14T02:31:56.834Z,5.60
2019-04-14T02:34:34.673Z,5.59
2019-04-14T02:37:05.338Z,5.64
2019-04-14T02:39:48.322Z,5.59
2019-04-14T02:44:45.782Z,5.63
2019-04-14T02:47:36.898Z,5.61
2019-04-14T02:49:51.217Z,5.57
2019-04-14T02:52:30.445Z,5.54
2019-04-14T02:57:33.935Z,5.60
2019-04-14T03:02:38.925Z,5.62
2019-04-14T03:05:09.671Z,5.71
2019-04-14T03:07:46.889Z,5.73
2019-04-14T03:10:22.515Z,5.73
2019-04-14T03:12:57.851Z,5.73
2019-04-14T03:15:33.306Z,5.65
2019-04-14T03:21:15.446Z,5.68
2019-04-14T03:23:56.414Z,5.69
2019-04-14T03:29:36.429Z,5.73
2019-04-14T03:32:23.606Z,5.74
2019-04-14T03:34:55.197Z,5.75
2019-04-14T03:37:39.637Z,5.72
2019-04-14T03:39:51.413Z,5.70
2019-04-14T03:42:28.849Z,5.75
2019-04-14T03:44:59.019Z,5.77
2019-04-14T03:50:08.387Z,5.70
2019-04-14T03:52:50.062Z,5.68
2019-04-14T03:55:10.110Z,5.68
2019-04-14T03:57:21.502Z,5.59
2019-04-14T03:59:54.180Z,5.61
2019-04-14T04:02:27.137Z,5.57
2019-04-14T04:04:59.866Z,5.55
2019-04-14T04:07:32.269Z,5.56
2019-04-14T04:10:13.556Z,5.53
2019-04-14T04:12:46.471Z,5.56
2019-04-14T04:15:19.233Z,5.51
2019-04-14T04:17:56.050Z,5.56
2019-04-14T04:20:52.851Z,5.55
2019-04-14T04:23:49.615Z,5.57
2019-04-14T04:26:30.641Z,5.61
2019-04-14T04:29:24.477Z,5.67
2019-04-14T04:32:12.127Z,5.63
2019-04-14T04:35:04.213Z,5.66
2019-04-14T04:38:14.038Z,5.72
2019-04-14T04:40:46.798Z,5.70
2019-04-14T04:43:19.451Z,5.72
2019-04-14T04:45:51.692Z,5.81
2019-04-14T04:48:24.199Z,5.79
2019-04-14T04:50:58.582Z,5.81
2019-04-14T04:53:30.978Z,5.87
2019-04-14T04:56:03.634Z,5.89
2019-04-14T04:58:35.467Z,5.90
2019-04-14T05:01:07.724Z,5.95
2019-04-14T05:03:40.688Z,5.94
2019-04-14T05:07:08.054Z,5.99
2019-04-14T05:10:14.188Z,6.02
2019-04-14T05:13:07.228Z,6.07
2019-04-14T05:15:58.234Z,6.14
2019-04-14T05:18:31.273Z,6.17
2019-04-14T05:21:03.956Z,6.23
2019-04-14T05:23:36.724Z,6.26
2019-04-14T05:26:09.183Z,6.24
2019-04-14T05:28:41.645Z,6.23
2019-04-14T05:31:14.327Z,6.21
2019-04-14T05:33:46.898Z,6.28
2019-04-14T05:36:19.788Z,6.33
2019-04-14T05:38:51.828Z,6.38
2019-04-14T05:41:24.570Z,6.46
2019-04-14T05:43:59.909Z,6.41
2019-04-14T05:46:30.022Z,6.47
2019-04-14T05:49:02.198Z,6.53
2019-04-14T05:51:35.065Z,6.55
2019-04-14T05:54:07.840Z,6.54
2019-04-14T05:56:40.749Z,6.65
2019-04-14T05:59:13.484Z,6.68
2019-04-14T06:01:46.519Z,6.73
2019-04-14T06:04:18.402Z,6.75
2019-04-14T06:06:50.276Z,6.81
2019-04-14T06:09:22.332Z,6.89
2019-04-14T06:11:55.934Z,6.94
2019-04-14T06:14:28.168Z,7.04
2019-04-14T06:16:59.849Z,7.02
2019-04-14T06:19:38.035Z,7.09
2019-04-14T06:22:06.137Z,7.14
2019-04-14T06:24:37.850Z,7.18
2019-04-14T06:27:09.542Z,7.26
2019-04-14T06:29:41.317Z,7.34
2019-04-14T06:32:37.732Z,7.43
2019-04-14T06:35:28.059Z,7.52
2019-04-14T06:38:07.865Z,7.64
2019-04-14T06:40:53.009Z,7.72
2019-04-14T06:43:24.961Z,7.72
2019-04-14T06:45:56.755Z,7.78
2019-04-14T06:48:28.571Z,7.83
2019-04-14T06:51:00.258Z,7.86
2019-04-14T06:53:32.078Z,7.98
2019-04-14T06:56:03.936Z,8.03
2019-04-14T06:58:35.779Z,8.11
2019-04-14T07:01:07.564Z,8.04
2019-04-14T07:03:39.491Z,8.01
2019-04-14T07:06:11.352Z,7.97
2019-04-14T07:08:43.151Z,7.95
2019-04-14T07:11:15.004Z,7.88
2019-04-14T07:13:48.174Z,7.80
2019-04-14T07:16:20.081Z,7.78
2019-04-14T07:18:51.956Z,7.73
2019-04-14T07:21:23.735Z,7.61
2019-04-14T07:23:55.596Z,7.61
2019-04-14T07:26:27.284Z,7.58
2019-04-14T07:28:59.145Z,7.55
2019-04-14T07:31:52.493Z,7.48
2019-04-14T07:34:43.300Z,7.44
2019-04-14T07:37:36.825Z,7.44
2019-04-14T07:40:30.478Z,7.32
2019-04-14T07:43:21.144Z,7.32
2019-04-14T07:46:30.170Z,7.39
2019-04-14T07:49:19.162Z,7.42
2019-04-14T07:52:23.694Z,7.55
2019-04-14T07:55:20.197Z,7.68
2019-04-14T07:58:14.387Z,7.83
2019-04-14T08:00:54.351Z,7.83
2019-04-14T08:03:39.216Z,7.80
2019-04-14T08:06:10.905Z,7.81
2019-04-14T08:08:42.581Z,7.90
2019-04-14T08:11:14.282Z,8.00
2019-04-14T08:13:46.160Z,8.07
2019-04-14T08:16:17.858Z,8.11
2019-04-14T08:18:49.707Z,8.19
2019-04-14T08:21:21.880Z,8.30
2019-04-14T08:23:53.735Z,8.37
2019-04-14T08:26:25.534Z,8.49
2019-04-14T08:28:57.297Z,8.57
2019-04-14T08:31:28.978Z,8.59
2019-04-14T08:34:00.762Z,8.71
2019-04-14T08:36:33.993Z,8.78
2019-04-14T08:39:07.024Z,8.94
2019-04-14T08:42:07.245Z,9.02
2019-04-14T08:44:42.744Z,9.07
2019-04-14T08:47:45.832Z,9.12
2019-04-14T08:50:23.551Z,9.29
2019-04-14T08:53:11.980Z,9.31
2019-04-14T08:55:53.417Z,9.40
2019-04-14T08:58:47.178Z,9.51
2019-04-14T09:01:25.659Z,9.63
2019-04-14T09:04:03.210Z,9.76
2019-04-14T09:06:40.338Z,9.82
2019-04-14T09:09:33.789Z,9.92
2019-04-14T09:12:17.234Z,9.99
2019-04-14T09:14:56.854Z,10.12
2019-04-14T09:17:22.760Z,10.21
2019-04-14T09:19:54.805Z,10.36
2019-04-14T09:22:26.628Z,10.42
2019-04-14T09:24:59.050Z,10.60
2019-04-14T09:27:31.187Z,10.72
2019-04-14T09:30:03.102Z,10.85
2019-04-14T09:32:35.201Z,10.99
2019-04-14T09:35:07.367Z,11.04
2019-04-14T09:37:39.136Z,11.14
2019-04-14T09:40:11.768Z,11.37
2019-04-14T09:42:43.622Z,11.53
2019-04-14T09:45:15.420Z,11.60
2019-04-14T09:47:47.200Z,11.74
2019-04-14T09:50:19.947Z,11.98
2019-04-14T09:52:51.932Z,12.20
2019-04-14T09:55:23.748Z,12.54
2019-04-14T09:57:56.644Z,12.97
2019-04-14T10:00:28.426Z,13.29
2019-04-14T10:03:00.381Z,13.56
2019-04-14T10:05:33.249Z,13.49
2019-04-14T10:08:05.054Z,13.25
2019-04-14T10:10:36.905Z,13.13
2019-04-14T10:13:08.833Z,12.93
2019-04-14T10:15:40.613Z,12.75
2019-04-14T10:18:12.431Z,12.71
2019-04-14T10:20:44.234Z,12.76
2019-04-14T10:23:16.045Z,12.70
2019-04-14T10:25:47.916Z,12.68
2019-04-14T10:28:19.714Z,12.83
2019-04-14T10:30:51.888Z,13.28
2019-04-14T10:33:23.649Z,13.93
2019-04-14T10:35:55.359Z,14.66
2019-04-14T10:38:27.222Z,15.10
2019-04-14T10:40:59.020Z,15.70
2019-04-14T10:43:30.802Z,15.96
2019-04-14T10:46:02.650Z,16.29
2019-04-14T10:48:34.410Z,16.46
2019-04-14T10:51:06.386Z,16.00
2019-04-14T10:53:38.166Z,15.53
2019-04-14T10:56:09.924Z,15.14
2019-04-14T10:58:41.821Z,14.76
2019-04-14T11:01:13.543Z,14.51
2019-04-14T11:03:45.410Z,14.30
2019-04-14T11:06:39.436Z,14.24
2019-04-14T11:09:15.712Z,14.76
2019-04-14T11:11:47.565Z,15.13
2019-04-14T11:14:19.386Z,15.42
2019-04-14T11:16:51.392Z,15.65
2019-04-14T11:19:23.207Z,15.97
2019-04-14T11:21:55.214Z,16.09
2019-04-14T11:24:26.904Z,16.33
2019-04-14T11:26:58.687Z,16.54
2019-04-14T11:29:30.559Z,16.72
2019-04-14T11:32:40.852Z,17.03
2019-04-14T11:35:22.789Z,17.23
2019-04-14T11:38:20.177Z,17.46
2019-04-14T11:40:55.865Z,17.82
2019-04-14T11:43:29.850Z,17.94
2019-04-14T11:46:03.895Z,18.15
2019-04-14T11:48:36.102Z,17.85
2019-04-14T11:51:07.897Z,18.02
2019-04-14T11:53:39.979Z,18.14
2019-04-14T11:56:12.026Z,18.21
2019-04-14T11:58:43.768Z,18.09
2019-04-14T12:01:33.923Z,18.07
2019-04-14T12:04:23.798Z,18.02
2019-04-14T12:07:16.813Z,18.14
2019-04-14T12:10:07.547Z,18.02
2019-04-14T12:12:39.615Z,17.78
2019-04-14T12:15:15.901Z,17.73
2019-04-14T12:17:45.073Z,17.63
2019-04-14T12:20:16.905Z,17.57
2019-04-14T12:22:49.341Z,17.49
2019-04-14T12:25:21.446Z,17.47
2019-04-14T12:27:53.640Z,17.21
2019-04-14T12:30:26.823Z,17.15
2019-04-14T12:32:58.842Z,17.03
2019-04-14T12:35:30.656Z,16.97
2019-04-14T12:38:02.933Z,16.77
2019-04-14T12:40:35.225Z,16.82
2019-04-14T12:43:28.479Z,16.83
2019-04-14T12:46:29.302Z,16.91
2019-04-14T12:49:08.927Z,16.70
2019-04-14T12:51:59.420Z,16.62
2019-04-14T12:54:31.285Z,16.59
2019-04-14T12:57:02.982Z,16.67
2019-04-14T12:59:37.744Z,16.72
2019-04-14T13:02:16.867Z,16.78
2019-04-14T13:04:48.767Z,16.78
2019-04-14T13:07:20.622Z,16.70
2019-04-14T13:09:52.520Z,16.58
2019-04-14T13:12:24.323Z,16.53
2019-04-14T13:14:56.299Z,16.51
2019-04-14T13:17:29.201Z,16.62
2019-04-14T13:20:01.169Z,16.48
2019-04-14T13:22:34.429Z,16.52
2019-04-14T13:25:06.689Z,16.21
2019-04-14T13:27:39.316Z,16.05
2019-04-14T13:30:13.333Z,16.02
2019-04-14T13:32:45.255Z,16.01
2019-04-14T13:35:17.101Z,15.96
2019-04-14T13:37:49.191Z,15.67
2019-04-14T13:40:20.994Z,15.65
2019-04-14T13:42:53.400Z,15.55
2019-04-14T13:45:25.547Z,15.52
2019-04-14T13:47:57.395Z,15.60
2019-04-14T13:50:29.783Z,15.68
2019-04-14T13:53:01.803Z,15.64
2019-04-14T13:55:33.693Z,15.69
2019-04-14T13:58:05.664Z,15.82
2019-04-14T14:00:37.540Z,15.87
2019-04-14T14:03:09.414Z,15.88
2019-04-14T14:05:43.591Z,15.94
2019-04-14T14:08:15.264Z,15.95
2019-04-14T14:10:47.148Z,16.03
2019-04-14T14:13:29.806Z,16.04
2019-04-14T14:16:20.901Z,16.07
2019-04-14T14:19:06.803Z,16.14
2019-04-14T14:21:49.793Z,16.18
2019-04-14T14:24:37.594Z,16.24
2019-04-14T14:27:09.890Z,16.17
2019-04-14T14:29:41.919Z,16.28
2019-04-14T14:32:33.658Z,16.14
2019-04-14T14:35:06.833Z,16.17
2019-04-14T14:37:38.696Z,16.23
2019-04-14T14:40:10.591Z,16.23
2019-04-14T14:42:42.458Z,16.19
2019-04-14T14:45:18.804Z,16.06
2019-04-14T14:48:27.435Z,16.05
2019-04-14T14:51:03.118Z,16.14
2019-04-14T14:53:35.012Z,16.34
2019-04-14T14:56:06.794Z,16.61
2019-04-14T14:58:38.649Z,16.82
2019-04-14T15:01:10.609Z,16.87
2019-04-14T15:03:42.384Z,17.19
2019-04-14T15:06:14.239Z,17.40
2019-04-14T15:08:45.999Z,17.58
2019-04-14T15:11:17.711Z,17.61
2019-04-14T15:13:49.988Z,17.74
2019-04-14T15:16:21.868Z,17.97
2019-04-14T15:18:53.908Z,18.23
2019-04-14T15:21:26.146Z,18.46
2019-04-14T15:23:58.059Z,18.55
2019-04-14T15:26:29.817Z,18.73
2019-04-14T15:29:01.583Z,19.10
2019-04-14T15:31:33.452Z,18.98
2019-04-14T15:34:05.200Z,19.58
2019-04-14T15:36:37.050Z,20.20
2019-04-14T15:39:09.531Z,20.76
2019-04-14T15:41:41.292Z,21.25
2019-04-14T15:44:13.052Z,21.48
2019-04-14T15:46:44.842Z,21.87
2019-04-14T15:49:16.717Z,22.16
2019-04-14T15:51:48.405Z,22.55
2019-04-14T15:54:20.281Z,23.03
2019-04-14T15:57:06.396Z,23.25
2019-04-14T15:59:47.748Z,23.51
2019-04-14T16:02:33.879Z,23.57
2019-04-14T16:05:31.249Z,23.93
2019-04-14T16:08:17.125Z,24.25
2019-04-14T16:10:54.978Z,24.73
2019-04-14T16:13:54.774Z,24.47
2019-04-14T16:16:48.922Z,24.57
2019-04-14T16:19:28.273Z,24.55
2019-04-14T16:22:01.134Z,24.44
2019-04-14T16:24:33.818Z,24.75
2019-04-14T16:27:18.936Z,24.85
2019-04-14T16:30:10.197Z,24.34
2019-04-14T16:32:59.332Z,24.28
2019-04-14T16:35:32.323Z,24.01
2019-04-14T16:38:04.221Z,23.49
2019-04-14T16:40:36.695Z,22.49
2019-04-14T16:43:08.563Z,21.61
2019-04-14T16:45:40.457Z,20.80
2019-04-14T16:48:12.741Z,20.31
2019-04-14T16:50:44.622Z,19.84
2019-04-14T16:53:26.391Z,19.52
2019-04-14T16:56:19.958Z,19.32
2019-04-14T16:58:54.528Z,18.83
2019-04-14T17:01:34.821Z,18.44
2019-04-14T17:04:06.907Z,18.32
2019-04-14T17:06:38.659Z,18.33
2019-04-14T17:09:10.651Z,17.86
2019-04-14T17:11:45.029Z,17.34
2019-04-14T17:14:43.208Z,16.87
2019-04-14T17:17:32.881Z,16.51
2019-04-14T17:20:23.438Z,16.18
2019-04-14T17:23:18.477Z,15.81
2019-04-14T17:26:05.489Z,15.66
2019-04-14T17:29:04.488Z,15.48
2019-04-14T17:31:55.448Z,15.27
2019-04-14T17:34:49.145Z,15.05
2019-04-14T17:37:38.488Z,14.80
2019-04-14T17:40:35.329Z,14.61
2019-04-14T17:43:27.787Z,14.51
2019-04-14T17:46:25.124Z,14.34
2019-04-14T17:49:18.253Z,14.24
2019-04-14T17:52:11.784Z,14.10
2019-04-14T17:55:05.641Z,13.96
2019-04-14T17:58:14.268Z,13.80
2019-04-14T18:01:07.840Z,13.80
2019-04-14T18:03:51.122Z,13.68
2019-04-14T18:06:26.594Z,13.55
2019-04-14T18:09:08.501Z,13.30
2019-04-14T18:11:57.949Z,13.28
2019-04-14T18:14:48.890Z,13.13
2019-04-14T18:17:39.694Z,12.96
2019-04-14T18:20:30.765Z,12.75
2019-04-14T18:23:02.997Z,12.64
2019-04-14T18:25:34.954Z,12.45
2019-04-14T18:28:27.532Z,12.38
2019-04-14T18:31:17.780Z,12.31
2019-04-14T18:34:23.754Z,12.18
2019-04-14T18:37:02.378Z,12.15
2019-04-14T18:39:52.031Z,11.99
2019-04-14T18:42:37.461Z,11.87
2019-04-14T18:45:26.807Z,11.81
2019-04-14T18:48:06.288Z,11.74
2019-04-14T18:51:02.756Z,11.68
2019-04-14T18:53:53.564Z,11.52
2019-04-14T18:56:44.518Z,11.47
2019-04-14T18:59:33.811Z,11.41
2019-04-14T19:02:07.082Z,11.39
2019-04-14T19:04:38.968Z,11.32
2019-04-14T19:07:10.859Z,11.29
2019-04-14T19:09:42.729Z,11.18
2019-04-14T19:12:36.362Z,11.14
2019-04-14T19:15:20.246Z,11.02
2019-04-14T19:17:57.321Z,10.95
2019-04-14T19:20:30.624Z,10.91
2019-04-14T19:23:02.520Z,10.88
2019-04-14T19:25:34.514Z,10.93
2019-04-14T19:28:06.555Z,10.84
2019-04-14T19:30:38.425Z,10.83
2019-04-14T19:33:10.334Z,10.80
2019-04-14T19:35:42.035Z,10.77
2019-04-14T19:38:13.953Z,10.67
2019-04-14T19:40:45.911Z,10.62
2019-04-14T19:43:23.604Z,10.66
2019-04-14T19:45:51.345Z,10.48
2019-04-14T19:48:23.203Z,10.44
2019-04-14T19:50:55.107Z,10.43
2019-04-14T19:53:26.910Z,10.38
2019-04-14T19:55:58.929Z,10.33
2019-04-14T19:58:30.654Z,10.23
2019-04-14T20:01:02.562Z,10.16
2019-04-14T20:03:34.422Z,10.11
2019-04-14T20:06:06.783Z,9.96
2019-04-14T20:08:38.636Z,10.01
2019-04-14T20:11:10.496Z,9.96
2019-04-14T20:13:45.586Z,9.92
2019-04-14T20:16:34.282Z,9.95
2019-04-14T20:19:36.849Z,9.75
2019-04-14T20:22:29.084Z,9.75
2019-04-14T20:25:08.068Z,9.73
2019-04-14T20:28:03.683Z,9.69
2019-04-14T20:30:42.193Z,9.61
2019-04-14T20:33:14.048Z,9.62
2019-04-14T20:35:45.799Z,9.54
2019-04-14T20:38:17.648Z,9.47
2019-04-14T20:40:50.406Z,9.41
2019-04-14T20:43:22.210Z,9.35
2019-04-14T20:45:54.863Z,9.28
2019-04-14T20:48:26.624Z,9.17
2019-04-14T20:50:58.376Z,9.13
2019-04-14T20:53:30.136Z,9.02
2019-04-14T20:56:01.887Z,8.99
2019-04-14T20:58:33.759Z,8.94
2019-04-14T21:01:07.181Z,8.83
2019-04-14T21:04:04.055Z,8.89
2019-04-14T21:06:53.234Z,8.86
2019-04-14T21:09:42.635Z,8.76
2019-04-14T21:12:42.352Z,8.68
2019-04-14T21:15:33.063Z,8.55
2019-04-14T21:18:08.946Z,8.50
2019-04-14T21:20:51.752Z,8.55
2019-04-14T21:23:45.037Z,8.46
2019-04-14T21:26:43.048Z,8.44
2019-04-14T21:29:51.720Z,8.31
2019-04-14T21:32:30.536Z,8.25
2019-04-14T21:35:19.930Z,8.22
2019-04-14T21:38:16.709Z,8.15
2019-04-14T21:41:01.401Z,8.14
2019-04-14T21:43:33.275Z,8.15
2019-04-14T21:46:05.026Z,8.04
2019-04-14T21:48:36.786Z,8.03
2019-04-14T21:51:08.638Z,8.02
2019-04-14T21:53:40.328Z,7.85
2019-04-14T21:56:13.580Z,7.77
2019-04-14T21:59:13.406Z,7.74
2019-04-14T22:02:02.434Z,7.76
2019-04-14T22:04:59.182Z,7.61
2019-04-14T22:07:48.395Z,7.66
2019-04-14T22:10:26.710Z,7.58
2019-04-14T22:12:58.560Z,7.54
2019-04-14T22:15:31.411Z,7.37
2019-04-14T22:18:03.184Z,7.43
2019-04-14T22:20:35.032Z,7.41
2019-04-14T22:23:10.179Z,7.33
2019-04-14T22:25:42.015Z,7.35
2019-04-14T22:28:13.888Z,7.33
2019-04-14T22:30:45.736Z,7.14
2019-04-14T22:33:17.513Z,7.11
2019-04-14T22:35:49.262Z,7.14
2019-04-14T22:38:21.043Z,7.09
2019-04-14T22:40:52.835Z,7.03
2019-04-14T22:43:24.674Z,7.03
2019-04-14T22:45:56.499Z,6.98
2019-04-14T22:48:28.379Z,6.92
2019-04-14T22:51:01.255Z,6.87
2019-04-14T22:53:33.117Z,6.89
2019-04-14T22:56:04.976Z,6.80
2019-04-14T22:58:37.827Z,6.71
2019-04-14T23:01:17.214Z,6.76
2019-04-14T23:04:16.377Z,6.73
2019-04-14T23:07:06.851Z,6.68
2019-04-14T23:09:48.181Z,6.71
2019-04-14T23:12:47.955Z,6.56
2019-04-14T23:15:38.636Z,6.54
2019-04-14T23:18:30.861Z,6.50
2019-04-14T23:21:14.978Z,6.51
2019-04-14T23:23:56.447Z,6.51
2019-04-14T23:26:28.524Z,6.45
2019-04-14T23:29:02.065Z,6.39
2019-04-14T23:31:33.847Z,6.35
2019-04-14T23:34:05.701Z,6.28
2019-04-14T23:36:37.553Z,6.19
2019-04-14T23:39:11.419Z,6.14
2019-04-14T23:41:43.373Z,6.17
2019-04-14T23:44:16.233Z,6.07
2019-04-14T23:46:47.987Z,6.02
2019-04-14T23:49:19.721Z,6.03
2019-04-14T23:51:51.455Z,5.90
2019-04-14T23:54:23.218Z,5.89
2019-04-14T23:57:05.265Z,5.88
2019-04-14T23:59:28.556Z,5.84
